createdAt,value
2023-01-09T08:24:33.585Z,7.50
2023-01-09T08:27:01.655Z,7.40
2023-01-09T08:29:30.462Z,7.50
2023-01-09T08:31:58.561Z,7.50
2023-01-09T08:34:26.614Z,7.50
2023-01-09T08:36:54.739Z,7.60
2023-01-09T08:39:22.780Z,7.60
2023-01-09T08:42:09.523Z,7.60
2023-01-09T08:44:54.949Z,7.70
2023-01-09T08:47:25.237Z,7.70
2023-01-09T08:49:53.315Z,7.70
2023-01-09T08:52:21.358Z,7.80
2023-01-09T08:54:49.420Z,7.80
2023-01-09T08:57:18.856Z,7.80
2023-01-09T08:59:46.912Z,7.80
2023-01-09T09:02:14.924Z,7.90
2023-01-09T09:04:43.809Z,7.90
2023-01-09T09:23:26.393Z,8.20
2023-01-09T09:25:54.613Z,8.00
2023-01-09T09:28:22.899Z,8.00
2023-01-09T09:30:51.099Z,8.00
2023-01-09T09:33:19.531Z,8.00
2023-01-09T09:35:47.805Z,8.00
2023-01-09T09:42:41.018Z,8.20
2023-01-09T09:45:25.666Z,8.20
2023-01-09T09:48:04.237Z,8.20
2023-01-09T09:51:05.811Z,8.20
2023-01-09T09:53:40.041Z,8.20
2023-01-09T09:58:39.624Z,8.10
2023-01-09T10:01:09.489Z,8.20
2023-01-09T10:03:41.204Z,8.20
2023-01-09T10:06:14.147Z,8.20
2023-01-09T10:08:48.888Z,8.30
2023-01-09T10:11:21.777Z,8.20
2023-01-09T10:14:10.607Z,8.20
2023-01-09T10:16:58.456Z,8.20
2023-01-09T10:19:38.468Z,8.30
2023-01-09T10:22:17.701Z,8.30
2023-01-09T10:25:01.940Z,8.40
2023-01-09T10:27:41.935Z,8.40
2023-01-09T10:30:27.291Z,8.50
2023-01-09T10:33:05.036Z,8.50
2023-01-09T10:36:04.730Z,8.50
2023-01-09T10:38:36.659Z,8.50
2023-01-09T10:41:10.052Z,8.60
2023-01-09T10:43:44.533Z,8.60
2023-01-09T10:46:19.795Z,8.70
2023-01-09T10:48:53.801Z,8.80
2023-01-09T10:51:25.627Z,8.80
2023-01-09T10:53:55.878Z,8.80
2023-01-09T10:56:26.957Z,8.90
2023-01-09T10:58:56.661Z,8.90
2023-01-09T11:01:29.474Z,8.90
2023-01-09T11:03:59.187Z,9.00
2023-01-09T11:06:34.078Z,9.00
2023-01-09T11:09:04.272Z,9.00
2023-01-09T11:11:34.945Z,9.10
2023-01-09T11:14:08.355Z,9.30
2023-01-09T11:16:38.179Z,9.50
2023-01-09T11:19:06.339Z,9.60
2023-01-09T11:21:38.209Z,9.70
2023-01-09T11:24:33.321Z,9.80
2023-01-09T11:27:25.966Z,9.90
2023-01-09T11:30:27.885Z,10.30
2023-01-09T11:32:59.744Z,10.80
2023-01-09T11:35:34.151Z,11.10
2023-01-09T11:38:08.338Z,11.40
2023-01-09T11:40:46.579Z,11.70
2023-01-09T11:43:19.393Z,12.00
2023-01-09T11:46:00.772Z,12.10
2023-01-09T11:48:57.019Z,11.90
2023-01-09T11:51:27.041Z,12.00
2023-01-09T11:54:17.481Z,12.40
2023-01-09T11:56:46.177Z,12.80
2023-01-09T11:59:16.541Z,13.00
2023-01-09T12:02:20.577Z,12.90
2023-01-09T12:04:55.580Z,12.60
2023-01-09T12:08:06.056Z,12.10
2023-01-09T12:10:45.963Z,11.70
2023-01-09T12:13:26.154Z,11.30
2023-01-09T12:16:03.435Z,11.20
2023-01-09T12:18:43.321Z,11.50
2023-01-09T12:21:34.027Z,11.80
2023-01-09T12:24:28.659Z,12.30
2023-01-09T12:27:08.856Z,12.30
2023-01-09T12:29:56.423Z,11.80
2023-01-09T12:32:41.227Z,11.60
2023-01-09T12:35:23.187Z,11.30
2023-01-09T12:38:15.771Z,11.20
2023-01-09T12:41:10.203Z,12.10
2023-01-09T12:43:48.596Z,13.30
2023-01-09T12:46:19.744Z,14.10
2023-01-09T12:49:12.595Z,14.50
2023-01-09T12:51:44.547Z,15.00
2023-01-09T12:54:21.734Z,15.20
2023-01-09T12:56:53.655Z,15.10
2023-01-09T12:59:32.615Z,15.40
2023-01-09T13:02:11.195Z,15.30
2023-01-09T13:04:45.374Z,15.70
2023-01-09T13:07:19.222Z,16.10
2023-01-09T13:09:53.347Z,16.40
2023-01-09T13:12:25.866Z,16.60
2023-01-09T13:15:02.894Z,16.90
2023-01-09T13:17:37.705Z,16.50
2023-01-09T13:20:18.906Z,15.80
2023-01-09T13:22:50.350Z,14.90
2023-01-09T13:25:44.767Z,14.10
2023-01-09T13:28:19.968Z,13.60
2023-01-09T13:31:09.006Z,12.90
2023-01-09T13:33:40.141Z,12.30
2023-01-09T13:36:08.361Z,11.70
2023-01-09T13:41:32.831Z,11.20
2023-01-09T13:44:03.557Z,10.80
2023-01-09T13:46:40.663Z,10.70
2023-01-09T13:49:33.080Z,10.60
2023-01-09T13:52:03.544Z,10.50
2023-01-09T13:55:16.223Z,10.50
2023-01-09T13:58:24.279Z,10.40
2023-01-09T14:01:01.755Z,10.30
2023-01-09T14:03:33.482Z,10.20
2023-01-09T14:06:22.366Z,10.20
2023-01-09T14:09:05.634Z,10.20
2023-01-09T14:11:33.878Z,10.20
2023-01-09T14:14:08.311Z,10.10
2023-01-09T14:16:38.115Z,10.10
2023-01-09T14:24:07.105Z,10.10
2023-01-09T14:26:48.896Z,10.00
2023-01-09T14:33:30.842Z,10.00
2023-01-09T14:42:55.401Z,9.60
2023-01-09T14:45:26.082Z,9.50
2023-01-09T14:47:57.835Z,9.50
